createdAt,value
2023-05-05T00:01:20.846Z,97661.38
2023-05-05T00:03:47.643Z,97670.47
2023-05-05T00:06:14.804Z,97660.81
2023-05-05T00:08:42.546Z,97680.31
2023-05-05T00:11:09.433Z,97657.69
2023-05-05T00:13:36.026Z,97671.81
2023-05-05T00:16:02.558Z,97657.69
2023-05-05T00:18:29.657Z,97657.78
2023-05-05T00:20:56.244Z,97658.59
2023-05-05T00:23:24.426Z,97657.44
2023-05-05T00:25:51.295Z,97660.63
2023-05-05T00:28:17.902Z,97668.75
2023-05-05T00:30:45.418Z,97667.22
2023-05-05T00:33:12.392Z,97669.66
2023-05-05T00:35:39.045Z,97668.63
2023-05-05T00:38:05.646Z,97662.28
2023-05-05T00:40:32.573Z,97666.72
2023-05-05T00:42:59.832Z,97655.06
2023-05-05T00:45:26.457Z,97662.06
2023-05-05T00:47:56.528Z,97660.09
2023-05-05T00:50:31.328Z,97648.91
2023-05-05T00:53:02.384Z,97654.31
2023-05-05T00:55:31.074Z,97652.03
2023-05-05T00:58:02.090Z,97656.00
2023-05-05T01:00:30.840Z,97650.59
2023-05-05T01:02:57.919Z,97645.16
2023-05-05T01:05:27.982Z,97645.16
2023-05-05T01:08:21.450Z,97645.66
2023-05-05T01:11:01.358Z,97642.50
2023-05-05T01:13:37.440Z,97638.28
2023-05-05T01:16:13.993Z,97650.00
2023-05-05T01:18:52.462Z,97648.44
2023-05-05T01:21:27.630Z,97649.19
2023-05-05T01:24:32.024Z,97645.38
2023-05-05T01:27:21.222Z,97646.91
2023-05-05T01:30:13.223Z,97651.94
2023-05-05T01:32:46.437Z,97648.13
2023-05-05T01:35:20.718Z,97639.97
2023-05-05T01:37:59.543Z,97633.03
2023-05-05T01:40:30.398Z,97640.03
2023-05-05T01:42:58.695Z,97634.13
2023-05-05T01:45:28.620Z,97636.88
2023-05-05T01:47:56.613Z,97643.09
2023-05-05T01:50:26.093Z,97642.28
2023-05-05T01:52:54.476Z,97643.06
2023-05-05T01:55:25.168Z,97641.53
2023-05-05T01:57:54.321Z,97636.97
2023-05-05T02:00:22.784Z,97641.94
2023-05-05T02:02:50.540Z,97633.81
2023-05-05T02:05:19.914Z,97642.38
2023-05-05T02:07:47.014Z,97641.59
2023-05-05T02:10:14.983Z,97642.38
2023-05-05T02:12:43.566Z,97636.97
2023-05-05T02:15:11.410Z,97641.59
2023-05-05T02:17:42.360Z,97636.97
2023-05-05T02:20:12.269Z,97645.47
2023-05-05T02:22:38.851Z,97640.09
2023-05-05T02:25:06.445Z,97649.41
2023-05-05T02:27:35.922Z,97642.84
2023-05-05T02:30:07.349Z,97654.91
2023-05-05T02:32:37.741Z,97646.34
2023-05-05T02:35:12.513Z,97658.78
2023-05-05T02:37:40.689Z,97654.16
2023-05-05T02:40:09.307Z,97655.69
2023-05-05T02:42:39.402Z,97650.63
2023-05-05T02:45:12.564Z,97656.44
2023-05-05T02:47:39.137Z,97653.31
2023-05-05T02:50:07.597Z,97661.94
2023-05-05T02:52:35.208Z,97655.66
2023-05-05T02:55:03.247Z,97660.69
2023-05-05T02:57:49.025Z,97658.34
2023-05-05T03:00:32.689Z,97652.53
2023-05-05T03:03:16.602Z,97646.34
2023-05-05T03:05:56.097Z,97647.50
2023-05-05T03:08:44.429Z,97642.47
2023-05-05T03:11:21.311Z,97642.09
2023-05-05T03:13:51.752Z,97646.38
2023-05-05T03:16:20.047Z,97639.38
2023-05-05T03:18:48.610Z,97648.72
2023-05-05T03:21:15.315Z,97651.06
2023-05-05T03:23:42.036Z,97654.22
2023-05-05T03:26:08.845Z,97648.00
2023-05-05T03:28:35.386Z,97648.81
2023-05-05T03:31:03.541Z,97650.41
2023-05-05T03:33:30.126Z,97644.13
2023-05-05T03:35:56.683Z,97640.22
2023-05-05T03:38:23.278Z,97640.25
2023-05-05T03:40:49.859Z,97630.94
2023-05-05T03:43:16.455Z,97637.19
2023-05-05T03:45:43.176Z,97628.59
2023-05-05T03:48:10.183Z,97641.06
2023-05-05T03:50:36.807Z,97640.69
2023-05-05T03:53:03.545Z,97641.06
2023-05-05T03:55:30.130Z,97642.59
2023-05-05T03:57:56.785Z,97639.84
2023-05-05T04:00:23.733Z,97647.22
2023-05-05T04:02:50.581Z,97638.28
2023-05-05T04:05:17.515Z,97643.31
2023-05-05T04:07:44.050Z,97645.66
2023-05-05T04:10:10.749Z,97641.34
2023-05-05T04:12:37.454Z,97642.88
2023-05-05T04:15:04.766Z,97651.03
2023-05-05T04:17:31.343Z,97651.81
2023-05-05T04:19:58.060Z,97652.63
2023-05-05T04:22:24.632Z,97651.81
2023-05-05T04:24:51.233Z,97659.56
2023-05-05T04:27:17.846Z,97648.66
2023-05-05T04:29:44.527Z,97663.44
2023-05-05T04:32:11.103Z,97659.13
2023-05-05T04:34:37.958Z,97664.09
2023-05-05T04:37:04.541Z,97670.28
2023-05-05T04:39:32.563Z,97674.13
2023-05-05T04:41:59.294Z,97670.22
2023-05-05T04:44:25.909Z,97668.19
2023-05-05T04:46:52.564Z,97667.00
2023-05-05T04:49:19.214Z,97675.47
2023-05-05T04:51:46.754Z,97666.13
2023-05-05T04:54:13.724Z,97662.09
2023-05-05T04:56:40.300Z,97672.50
2023-05-05T04:59:07.704Z,97671.22
2023-05-05T05:01:35.758Z,97671.16
2023-05-05T05:04:05.051Z,97673.38
2023-05-05T05:06:32.387Z,97681.13
2023-05-05T05:08:59.001Z,97681.56
2023-05-05T05:11:25.670Z,97680.97
2023-05-05T05:13:53.207Z,97688.88
2023-05-05T05:16:19.873Z,97686.44
2023-05-05T05:18:46.513Z,97688.72
2023-05-05T05:21:13.376Z,97690.13
2023-05-05T05:23:40.090Z,97688.47
2023-05-05T05:26:06.628Z,97696.06
2023-05-05T05:28:33.209Z,97696.81
2023-05-05T05:31:00.545Z,97693.47
2023-05-05T05:33:28.633Z,97692.34
2023-05-05T05:35:55.166Z,97691.88
2023-05-05T05:38:21.755Z,97698.59
2023-05-05T05:40:48.311Z,97693.06
2023-05-05T05:43:14.976Z,97699.56
2023-05-05T05:45:41.739Z,97704.06
2023-05-05T05:48:08.349Z,97715.06
2023-05-05T05:50:36.473Z,97702.44
2023-05-05T05:53:03.146Z,97701.97
2023-05-05T05:55:29.859Z,97687.97
2023-05-05T05:57:56.489Z,97699.72
2023-05-05T06:00:23.276Z,97702.72
2023-05-05T06:02:51.426Z,97697.38
2023-05-05T06:05:18.433Z,97711.16
2023-05-05T06:07:45.229Z,97715.88
2023-05-05T06:10:26.565Z,97704.81
2023-05-05T06:12:54.484Z,97722.31
2023-05-05T06:15:21.178Z,97716.81
2023-05-05T06:17:47.864Z,97707.72
2023-05-05T06:20:14.604Z,97709.19
2023-05-05T06:22:41.251Z,97711.13
2023-05-05T06:25:08.324Z,97709.63
2023-05-05T06:27:35.299Z,97710.09
2023-05-05T06:30:01.917Z,97704.94
2023-05-05T06:32:28.511Z,97710.97
2023-05-05T06:34:55.277Z,97706.34
2023-05-05T06:37:21.841Z,97706.50
2023-05-05T06:39:49.105Z,97708.50
2023-05-05T06:42:15.711Z,97706.34
2023-05-05T06:44:42.254Z,97703.84
2023-05-05T06:47:08.927Z,97705.09
2023-05-05T06:49:35.571Z,97702.34
2023-05-05T06:52:02.165Z,97711.41
2023-05-05T06:54:28.758Z,97714.13
2023-05-05T06:56:56.193Z,97712.06
2023-05-05T06:59:23.815Z,97704.66
2023-05-05T07:01:51.873Z,97706.97
2023-05-05T07:04:18.892Z,97712.59
2023-05-05T07:06:45.566Z,97720.75
2023-05-05T07:09:13.042Z,97717.34
2023-05-05T07:11:39.957Z,97713.47
2023-05-05T07:14:06.602Z,97710.25
2023-05-05T07:16:34.971Z,97708.28
2023-05-05T07:19:01.902Z,97709.00
2023-05-05T07:21:28.460Z,97705.50
2023-05-05T07:23:55.477Z,97697.19
2023-05-05T07:26:22.182Z,97695.34
2023-05-05T07:28:48.776Z,97691.22
2023-05-05T07:31:15.541Z,97695.03
2023-05-05T07:33:42.430Z,97689.66
2023-05-05T07:36:09.134Z,97686.06
2023-05-05T07:38:35.961Z,97689.00
2023-05-05T07:41:03.353Z,97684.97
2023-05-05T07:43:30.048Z,97690.13
2023-05-05T07:45:56.659Z,97685.00
2023-05-05T07:48:23.233Z,97680.22
2023-05-05T07:50:49.811Z,97679.44
2023-05-05T07:53:16.383Z,97683.22
2023-05-05T07:55:42.939Z,97685.91
2023-05-05T07:58:11.245Z,97679.88
2023-05-05T08:00:38.492Z,97689.69
2023-05-05T08:03:06.235Z,97693.44
2023-05-05T08:05:33.754Z,97693.69
2023-05-05T08:08:00.557Z,97693.72
2023-05-05T08:10:30.056Z,97693.72
2023-05-05T08:12:56.884Z,97694.50
2023-05-05T08:15:23.495Z,97686.28
2023-05-05T08:17:52.685Z,97692.72
2023-05-05T08:20:20.664Z,97689.22
2023-05-05T08:22:47.829Z,97695.56
2023-05-05T08:25:14.579Z,97685.31
2023-05-05T08:27:42.427Z,97669.97
2023-05-05T08:30:10.241Z,97683.81
2023-05-05T08:32:37.204Z,97678.38
2023-05-05T08:35:05.316Z,97679.56
2023-05-05T08:37:32.001Z,97682.72
2023-05-05T08:39:58.747Z,97684.47
2023-05-05T08:42:37.273Z,97682.84
2023-05-05T08:45:07.432Z,97689.50
2023-05-05T08:47:36.465Z,97688.47
2023-05-05T08:50:05.802Z,97688.63
2023-05-05T08:52:40.468Z,97683.38
2023-05-05T08:55:18.126Z,97688.13
2023-05-05T08:57:53.123Z,97677.09
2023-05-05T09:00:20.590Z,97675.13
2023-05-05T09:02:48.037Z,97675.41
2023-05-05T09:05:15.592Z,97675.03
2023-05-05T09:07:44.263Z,97681.47
2023-05-05T09:10:12.630Z,97674.44
2023-05-05T09:12:40.599Z,97674.06
2023-05-05T09:15:12.052Z,97671.00
2023-05-05T09:17:39.741Z,97670.72
2023-05-05T09:20:08.138Z,97665.94
2023-05-05T09:22:37.947Z,97671.16
2023-05-05T09:25:06.546Z,97671.31
2023-05-05T09:27:38.170Z,97670.34
2023-05-05T09:30:10.250Z,97673.19
2023-05-05T09:32:50.795Z,97667.19
2023-05-05T09:35:18.488Z,97674.69
2023-05-05T09:37:45.287Z,97658.97
2023-05-05T09:40:15.331Z,97665.38
2023-05-05T09:42:42.441Z,97668.72
2023-05-05T09:45:18.191Z,97657.00
2023-05-05T09:47:47.308Z,97656.81
2023-05-05T09:50:21.560Z,97653.81
2023-05-05T09:52:58.848Z,97645.06
2023-05-05T09:55:29.564Z,97651.13
2023-05-05T09:57:56.342Z,97638.38
2023-05-05T10:00:37.487Z,97648.00
2023-05-05T10:03:04.495Z,97643.38
2023-05-05T10:05:31.064Z,97648.44
2023-05-05T10:08:13.620Z,97646.66
2023-05-05T10:10:51.652Z,97643.97
2023-05-05T10:13:19.936Z,97646.59
2023-05-05T10:15:50.120Z,97643.94
2023-05-05T10:18:21.270Z,97646.00
2023-05-05T10:20:52.188Z,97651.88
2023-05-05T10:23:20.939Z,97637.84
2023-05-05T10:25:59.153Z,97644.88
2023-05-05T10:28:33.072Z,97634.03
2023-05-05T10:31:04.263Z,97636.19
2023-05-05T10:34:04.257Z,97624.72
2023-05-05T10:36:32.032Z,97623.84
2023-05-05T10:39:00.278Z,97614.19
2023-05-05T10:41:27.223Z,97613.84
2023-05-05T10:43:57.475Z,97609.13
2023-05-05T10:46:28.352Z,97610.84
2023-05-05T10:49:04.853Z,97611.19
2023-05-05T10:51:40.016Z,97606.25
2023-05-05T10:54:20.979Z,97601.69
2023-05-05T10:56:47.586Z,97606.25
2023-05-05T10:59:36.868Z,97600.63
2023-05-05T11:02:29.952Z,97590.50
2023-05-05T11:05:25.959Z,97597.63
2023-05-05T11:07:52.648Z,97583.34
2023-05-05T11:10:20.859Z,97578.69
2023-05-05T11:13:03.156Z,97573.03
2023-05-05T11:15:30.316Z,97565.81
2023-05-05T11:17:58.779Z,97558.25
2023-05-05T11:20:40.604Z,97563.50
2023-05-05T11:23:07.459Z,97567.13
2023-05-05T11:25:37.832Z,97564.91
2023-05-05T11:28:14.617Z,97551.63
2023-05-05T11:30:57.465Z,97555.75
2023-05-05T11:33:31.185Z,97547.84
2023-05-05T11:35:59.472Z,97553.56
2023-05-05T11:38:53.851Z,97542.91
2023-05-05T11:41:26.140Z,97540.75
2023-05-05T11:44:17.298Z,97545.03
2023-05-05T11:46:54.024Z,97545.41
2023-05-05T11:49:31.862Z,97544.91
2023-05-05T11:52:08.020Z,97540.03
2023-05-05T11:54:36.356Z,97532.28
2023-05-05T11:57:05.656Z,97531.69
2023-05-05T11:59:50.239Z,97531.25
2023-05-05T12:02:18.248Z,97522.13
2023-05-05T12:04:45.543Z,97525.13
2023-05-05T12:07:20.216Z,97521.47
2023-05-05T12:09:49.592Z,97525.25
2023-05-05T12:12:17.178Z,97522.66
2023-05-05T12:14:47.950Z,97519.19
2023-05-05T12:17:14.603Z,97517.81
2023-05-05T12:20:09.139Z,97522.78
2023-05-05T12:22:36.519Z,97518.59
2023-05-05T12:25:08.230Z,97519.38
2023-05-05T12:27:38.945Z,97522.28
2023-05-05T12:30:16.874Z,97515.69
2023-05-05T12:32:44.198Z,97526.06
2023-05-05T12:35:12.403Z,97518.63
2023-05-05T12:37:39.297Z,97515.97
2023-05-05T12:40:07.323Z,97508.41
2023-05-05T12:42:39.067Z,97515.06
2023-05-05T12:45:07.373Z,97500.16
2023-05-05T12:47:34.400Z,97500.41
2023-05-05T12:50:03.245Z,97501.88
2023-05-05T12:52:51.933Z,97501.63
2023-05-05T12:55:19.867Z,97503.69
2023-05-05T12:58:04.726Z,97493.25
2023-05-05T13:00:31.785Z,97494.72
2023-05-05T13:02:58.675Z,97493.84
2023-05-05T13:05:41.131Z,97490.63
2023-05-05T13:08:07.797Z,97492.28
2023-05-05T13:10:34.504Z,97487.03
2023-05-05T13:13:01.088Z,97483.84
2023-05-05T13:15:28.295Z,97478.63
2023-05-05T13:18:01.711Z,97487.97
2023-05-05T13:20:29.028Z,97479.66
2023-05-05T13:22:55.681Z,97473.41
2023-05-05T13:25:22.539Z,97468.28
2023-05-05T13:27:49.178Z,97481.03
2023-05-05T13:30:16.064Z,97467.03
2023-05-05T13:32:42.699Z,97454.97
2023-05-05T13:35:09.480Z,97459.50
2023-05-05T13:37:36.594Z,97453.03
2023-05-05T13:40:03.735Z,97446.47
2023-05-05T13:42:30.305Z,97445.13
2023-05-05T13:44:56.837Z,97439.03
2023-05-05T13:47:23.560Z,97442.19
2023-05-05T13:49:50.223Z,97434.03
2023-05-05T13:52:16.788Z,97431.94
2023-05-05T13:54:43.431Z,97434.66
2023-05-05T13:57:11.224Z,97425.75
2023-05-05T13:59:37.967Z,97426.97
2023-05-05T14:02:05.572Z,97431.97
2023-05-05T14:04:32.301Z,97427.56
2023-05-05T14:06:58.990Z,97423.53
2023-05-05T14:09:26.076Z,97418.19
2023-05-05T14:11:52.629Z,97425.25
2023-05-05T14:14:19.784Z,97411.16
2023-05-05T14:16:48.663Z,97410.31
2023-05-05T14:19:16.780Z,97412.53
2023-05-05T14:21:43.318Z,97408.53
2023-05-05T14:24:10.063Z,97405.97
2023-05-05T14:26:36.625Z,97404.53
2023-05-05T14:29:03.831Z,97405.88
2023-05-05T14:31:30.649Z,97410.28
2023-05-05T14:33:57.214Z,97410.03
2023-05-05T14:36:23.868Z,97409.34
2023-05-05T14:38:50.704Z,97400.63
2023-05-05T14:41:17.311Z,97403.75
2023-05-05T14:43:43.919Z,97409.09
2023-05-05T14:46:10.889Z,97401.19
2023-05-05T14:48:37.777Z,97397.59
2023-05-05T14:51:04.867Z,97405.78
2023-05-05T14:53:31.551Z,97405.28
2023-05-05T14:55:58.358Z,97398.16
2023-05-05T14:58:25.244Z,97398.44
2023-05-05T15:00:53.004Z,97396.38
2023-05-05T15:03:19.670Z,97391.31
2023-05-05T15:05:46.624Z,97393.06
2023-05-05T15:08:14.627Z,97388.47
2023-05-05T15:10:41.545Z,97393.56
2023-05-05T15:13:08.108Z,97391.53
2023-05-05T15:15:35.753Z,97391.56
2023-05-05T15:18:02.402Z,97388.50
2023-05-05T15:20:29.162Z,97385.44
2023-05-05T15:22:55.867Z,97384.41
2023-05-05T15:25:22.473Z,97388.00
2023-05-05T15:27:49.509Z,97378.59
2023-05-05T15:30:16.196Z,97379.09
2023-05-05T15:32:43.028Z,97382.41
2023-05-05T15:35:09.820Z,97377.31
2023-05-05T15:37:37.969Z,97370.72
2023-05-05T15:40:05.656Z,97375.53
2023-05-05T15:42:33.915Z,97363.06
2023-05-05T15:45:04.777Z,97370.69
2023-05-05T15:47:31.530Z,97372.72
2023-05-05T15:49:58.121Z,97371.69
2023-05-05T15:52:24.698Z,97364.84
2023-05-05T15:54:51.268Z,97360.75
2023-05-05T15:57:17.874Z,97368.56
2023-05-05T15:59:44.604Z,97363.75
2023-05-05T16:02:11.626Z,97367.53
2023-05-05T16:04:38.171Z,97361.94
2023-05-05T16:07:04.675Z,97370.31
2023-05-05T16:09:31.286Z,97368.53
2023-05-05T16:11:57.866Z,97369.56
2023-05-05T16:14:24.987Z,97370.03
2023-05-05T16:16:51.570Z,97370.25
2023-05-05T16:19:18.301Z,97370.72
2023-05-05T16:21:45.070Z,97368.56
2023-05-05T16:24:16.196Z,97361.25
2023-05-05T16:26:43.751Z,97354.38
2023-05-05T16:29:10.672Z,97362.84
2023-05-05T16:31:37.743Z,97359.06
2023-05-05T16:34:04.682Z,97358.31
2023-05-05T16:36:31.403Z,97364.03
2023-05-05T16:38:58.866Z,97358.84
2023-05-05T16:41:26.485Z,97356.78
2023-05-05T16:43:55.809Z,97363.81
2023-05-05T16:46:22.463Z,97365.34
2023-05-05T16:48:49.214Z,97369.31
2023-05-05T16:51:15.824Z,97368.19
2023-05-05T16:53:42.448Z,97368.94
2023-05-05T16:56:13.224Z,97364.09
2023-05-05T16:58:40.344Z,97355.94
2023-05-05T17:01:07.004Z,97362.00
2023-05-05T17:03:34.670Z,97366.34
2023-05-05T17:06:01.289Z,97364.56
2023-05-05T17:08:27.978Z,97360.47
2023-05-05T17:10:54.591Z,97353.53
2023-05-05T17:13:23.123Z,97351.28
2023-05-05T17:15:52.693Z,97357.00
2023-05-05T17:18:21.291Z,97352.69
2023-05-05T17:20:49.233Z,97358.81
2023-05-05T17:23:16.797Z,97349.66
2023-05-05T17:25:43.429Z,97351.41
2023-05-05T17:28:11.355Z,97361.59
2023-05-05T17:30:37.949Z,97355.28
2023-05-05T17:33:04.751Z,97355.66
2023-05-05T17:35:33.360Z,97345.53
2023-05-05T17:38:00.047Z,97343.19
2023-05-05T17:40:26.776Z,97337.84
2023-05-05T17:42:53.332Z,97343.44
2023-05-05T17:45:19.978Z,97347.34
2023-05-05T17:47:46.622Z,97347.22
2023-05-05T17:50:13.163Z,97348.38
2023-05-05T17:52:41.200Z,97342.88
2023-05-05T17:55:08.544Z,97330.50
2023-05-05T17:57:35.679Z,97317.66
2023-05-05T18:00:06.857Z,97305.84
2023-05-05T18:02:36.887Z,97286.09
2023-05-05T18:05:04.309Z,97281.88
2023-05-05T18:07:30.904Z,97269.84
2023-05-05T18:09:57.822Z,97269.97
2023-05-05T18:12:24.377Z,97273.22
2023-05-05T18:14:52.049Z,97264.72
2023-05-05T18:17:18.639Z,97265.22
2023-05-05T18:19:47.243Z,97267.22
2023-05-05T18:22:15.637Z,97262.06
2023-05-05T18:24:42.277Z,97266.66
2023-05-05T18:27:09.066Z,97275.09
2023-05-05T18:29:36.302Z,97277.00
2023-05-05T18:32:02.909Z,97281.28
2023-05-05T18:34:29.728Z,97299.78
2023-05-05T18:36:57.257Z,97303.41
2023-05-05T18:39:24.244Z,97304.19
2023-05-05T18:41:50.829Z,97310.28
2023-05-05T18:44:18.689Z,97324.84
2023-05-05T18:46:47.186Z,97323.31
2023-05-05T18:49:13.841Z,97328.25
2023-05-05T18:51:40.843Z,97336.00
2023-05-05T18:54:07.658Z,97350.81
2023-05-05T18:56:34.430Z,97339.91
2023-05-05T18:59:00.967Z,97351.75
2023-05-05T19:01:27.640Z,97362.66
2023-05-05T19:03:54.306Z,97365.78
2023-05-05T19:06:21.169Z,97380.59
2023-05-05T19:08:49.064Z,97391.13
2023-05-05T19:11:15.999Z,97399.16
2023-05-05T19:13:42.913Z,97411.72
2023-05-05T19:16:11.517Z,97415.16
2023-05-05T19:18:38.836Z,97434.09
2023-05-05T19:21:05.721Z,97445.69
2023-05-05T19:23:32.384Z,97464.16
2023-05-05T19:25:59.006Z,97472.66
2023-05-05T19:28:25.579Z,97485.41
2023-05-05T19:30:52.393Z,97514.31
2023-05-05T19:33:19.003Z,97518.72
2023-05-05T19:35:45.605Z,97542.16
2023-05-05T19:38:12.382Z,97542.94
2023-05-05T19:40:40.053Z,97562.56
2023-05-05T19:43:07.269Z,97566.03
2023-05-05T19:45:34.110Z,97575.56
2023-05-05T19:48:01.745Z,97601.94
2023-05-05T19:50:30.625Z,97626.66
2023-05-05T19:52:57.577Z,97637.94
2023-05-05T19:55:27.230Z,97652.91
2023-05-05T19:57:54.142Z,97649.41
2023-05-05T20:00:20.789Z,97666.50
2023-05-05T20:02:49.226Z,97654.72
2023-05-05T20:05:17.960Z,97663.75
2023-05-05T20:07:46.442Z,97656.03
2023-05-05T20:10:16.798Z,97660.41
2023-05-05T20:12:49.073Z,97661.75
2023-05-05T20:15:18.911Z,97666.28
2023-05-05T20:17:47.164Z,97657.91
2023-05-05T20:20:19.046Z,97645.09
2023-05-05T20:22:47.591Z,97604.66
2023-05-05T20:25:16.308Z,97586.88
2023-05-05T20:27:43.638Z,97598.44
2023-05-05T20:30:10.951Z,97603.06
2023-05-05T20:32:38.246Z,97625.88
2023-05-05T20:35:06.226Z,97627.44
2023-05-05T20:37:32.837Z,97627.09
2023-05-05T20:39:59.438Z,97627.44
2023-05-05T20:42:26.473Z,97634.81
2023-05-05T20:44:53.234Z,97640.00
2023-05-05T20:47:19.930Z,97641.66
2023-05-05T20:49:46.641Z,97637.78
2023-05-05T20:52:13.374Z,97650.03
2023-05-05T20:54:39.937Z,97646.97
2023-05-05T20:57:09.614Z,97646.28
2023-05-05T20:59:37.636Z,97646.09
2023-05-05T21:02:04.692Z,97648.41
2023-05-05T21:04:31.392Z,97656.69
2023-05-05T21:06:58.377Z,97645.66
2023-05-05T21:09:25.030Z,97652.69
2023-05-05T21:11:51.653Z,97657.22
2023-05-05T21:14:18.231Z,97656.47
2023-05-05T21:16:44.880Z,97657.69
2023-05-05T21:19:11.468Z,97665.06
2023-05-05T21:21:38.059Z,97652.81
2023-05-05T21:24:08.036Z,97654.66
2023-05-05T21:26:34.749Z,97658.19
2023-05-05T21:29:01.646Z,97658.66
2023-05-05T21:31:28.237Z,97661.41
2023-05-05T21:33:54.871Z,97658.22
2023-05-05T21:36:21.479Z,97659.88
2023-05-05T21:38:49.606Z,97657.44
2023-05-05T21:41:16.935Z,97657.00
2023-05-05T21:43:43.576Z,97670.16
2023-05-05T21:46:10.480Z,97678.19
2023-05-05T21:48:39.002Z,97688.13
2023-05-05T21:51:06.828Z,97690.63
2023-05-05T21:53:33.421Z,97685.56
2023-05-05T21:55:59.938Z,97689.50
2023-05-05T21:58:26.610Z,97694.06
2023-05-05T22:00:53.272Z,97685.81
2023-05-05T22:03:20.005Z,97688.44
2023-05-05T22:05:47.059Z,97680.06
2023-05-05T22:08:13.595Z,97678.16
2023-05-05T22:10:40.210Z,97678.75
2023-05-05T22:13:06.894Z,97683.59
2023-05-05T22:15:45.397Z,97685.47
2023-05-05T22:18:13.579Z,97685.81
2023-05-05T22:20:40.773Z,97675.41
2023-05-05T22:23:07.463Z,97677.78
2023-05-05T22:25:34.113Z,97679.25
2023-05-05T22:28:03.686Z,97680.78
2023-05-05T22:30:30.313Z,97676.13
2023-05-05T22:32:56.951Z,97679.56
2023-05-05T22:35:23.793Z,97682.66
2023-05-05T22:37:50.397Z,97682.00
2023-05-05T22:40:17.075Z,97687.13
2023-05-05T22:42:43.748Z,97695.16
2023-05-05T22:45:11.012Z,97688.78
2023-05-05T22:47:37.898Z,97696.38
2023-05-05T22:50:04.664Z,97696.91
2023-05-05T22:52:31.615Z,97700.75
2023-05-05T22:54:58.149Z,97694.84
2023-05-05T22:57:24.796Z,97694.28
2023-05-05T22:59:51.700Z,97686.56
2023-05-05T23:02:18.324Z,97698.25
2023-05-05T23:04:45.150Z,97682.50
2023-05-05T23:07:13.181Z,97692.56
2023-05-05T23:09:40.846Z,97694.19
2023-05-05T23:12:07.391Z,97694.09
2023-05-05T23:14:34.004Z,97689.09
2023-05-05T23:17:01.025Z,97685.13
2023-05-05T23:19:29.189Z,97686.34
2023-05-05T23:21:55.838Z,97684.16
2023-05-05T23:24:22.433Z,97684.81
2023-05-05T23:26:49.071Z,97679.75
2023-05-05T23:29:15.835Z,97682.00
2023-05-05T23:31:42.608Z,97676.47
2023-05-05T23:34:09.323Z,97675.59
2023-05-05T23:36:35.852Z,97682.84
2023-05-05T23:39:02.413Z,97675.78
2023-05-05T23:41:28.979Z,97675.94
2023-05-05T23:43:56.412Z,97670.63
2023-05-05T23:46:24.172Z,97673.16
2023-05-05T23:48:51.245Z,97673.38
2023-05-05T23:51:18.008Z,97657.94
2023-05-05T23:53:44.608Z,97658.59
2023-05-05T23:56:11.860Z,97655.09
2023-05-05T23:58:38.559Z,97653.75
